createdAt,value
2023-04-10T00:00:30.918Z,16.95
2023-04-10T00:01:02.386Z,17.67
2023-04-10T00:01:36.120Z,17.85
2023-04-10T00:02:07.651Z,16.13
2023-04-10T00:02:39.191Z,16.27
2023-04-10T00:03:11.044Z,16.08
2023-04-10T00:03:42.879Z,16.33
2023-04-10T00:04:15.669Z,16.92
2023-04-10T00:04:47.595Z,15.77
2023-04-10T00:05:19.279Z,15.38
2023-04-10T00:05:50.868Z,15.50
2023-04-10T00:06:22.294Z,15.82
2023-04-10T00:06:53.724Z,16.45
2023-04-10T00:07:25.472Z,17.48
2023-04-10T00:07:56.942Z,16.47
2023-04-10T00:08:28.317Z,15.30
2023-04-10T00:08:59.684Z,15.63
2023-04-10T00:09:31.112Z,15.95
2023-04-10T00:10:02.525Z,16.20
2023-04-10T00:10:33.901Z,15.90
2023-04-10T00:11:05.882Z,15.00
2023-04-10T00:11:37.267Z,16.08
2023-04-10T00:12:08.796Z,15.57
2023-04-10T00:12:40.201Z,15.68
2023-04-10T00:13:11.652Z,14.17
2023-04-10T00:13:43.086Z,16.30
2023-04-10T00:14:14.477Z,15.13
2023-04-10T00:14:46.154Z,15.38
2023-04-10T00:15:17.533Z,14.55
2023-04-10T00:15:50.001Z,14.65
2023-04-10T00:16:21.465Z,15.27
2023-04-10T00:16:53.115Z,15.15
2023-04-10T00:17:24.858Z,16.05
2023-04-10T00:17:56.312Z,14.77
2023-04-10T00:18:28.676Z,14.27
2023-04-10T00:19:00.206Z,15.80
2023-04-10T00:19:31.908Z,15.35
2023-04-10T00:20:05.165Z,16.40
2023-04-10T00:20:36.579Z,17.58
2023-04-10T00:21:08.066Z,14.63
2023-04-10T00:21:39.487Z,15.27
2023-04-10T00:22:11.006Z,14.35
2023-04-10T00:22:43.101Z,14.98
2023-04-10T00:23:14.544Z,15.68
2023-04-10T00:23:46.135Z,15.73
2023-04-10T00:24:17.609Z,15.35
2023-04-10T00:24:49.148Z,15.48
2023-04-10T00:25:22.885Z,16.70
2023-04-10T00:25:54.274Z,16.45
2023-04-10T00:26:26.802Z,15.43
2023-04-10T00:26:58.248Z,15.32
2023-04-10T00:27:29.907Z,15.23
2023-04-10T00:28:01.347Z,14.90
2023-04-10T00:28:32.808Z,15.07
2023-04-10T00:29:04.343Z,14.50
2023-04-10T00:29:35.766Z,14.25
2023-04-10T00:30:08.145Z,14.35
2023-04-10T00:30:39.564Z,14.70
2023-04-10T00:31:11.029Z,14.00
2023-04-10T00:31:42.728Z,15.27
2023-04-10T00:32:14.229Z,13.68
2023-04-10T00:32:45.897Z,13.93
2023-04-10T00:33:17.387Z,15.38
2023-04-10T00:33:48.827Z,13.82
2023-04-10T00:34:20.305Z,15.20
2023-04-10T00:34:51.793Z,14.57
2023-04-10T00:35:23.239Z,15.68
2023-04-10T00:35:54.682Z,15.57
2023-04-10T00:36:26.949Z,15.23
2023-04-10T00:36:59.203Z,13.80
2023-04-10T00:37:30.787Z,14.93
2023-04-10T00:38:02.147Z,15.10
2023-04-10T00:38:33.838Z,14.57
2023-04-10T00:39:05.329Z,14.52
2023-04-10T00:39:36.759Z,15.23
2023-04-10T00:40:08.714Z,15.07
2023-04-10T00:40:40.137Z,14.48
2023-04-10T00:41:11.752Z,14.93
2023-04-10T00:41:43.179Z,14.68
2023-04-10T00:42:14.558Z,13.05
2023-04-10T00:42:46.069Z,13.93
2023-04-10T00:43:20.212Z,14.80
2023-04-10T00:43:56.970Z,14.90
2023-04-10T00:44:28.646Z,14.13
2023-04-10T00:45:00.560Z,13.73
2023-04-10T00:45:31.977Z,14.15
2023-04-10T00:46:05.503Z,13.50
2023-04-10T00:46:38.113Z,14.02
2023-04-10T00:47:09.546Z,14.25
2023-04-10T00:47:41.482Z,13.80
2023-04-10T00:48:13.227Z,14.93
2023-04-10T00:48:44.834Z,14.02
2023-04-10T00:49:18.369Z,14.65
2023-04-10T00:49:50.652Z,13.70
2023-04-10T00:50:22.396Z,13.43
2023-04-10T00:50:54.121Z,14.07
2023-04-10T00:51:26.486Z,14.35
2023-04-10T00:51:58.590Z,14.15
2023-04-10T00:52:30.367Z,13.00
2023-04-10T00:53:03.172Z,13.02
2023-04-10T00:53:34.626Z,13.57
2023-04-10T00:54:06.766Z,13.00
2023-04-10T00:54:38.614Z,14.07
2023-04-10T00:55:11.077Z,12.73
2023-04-10T00:55:43.638Z,13.30
2023-04-10T00:56:15.492Z,13.38
2023-04-10T00:56:47.764Z,13.13
2023-04-10T00:57:19.267Z,12.57
2023-04-10T00:57:50.671Z,14.23
2023-04-10T00:58:22.069Z,12.88
2023-04-10T00:58:53.464Z,13.25
2023-04-10T00:59:25.357Z,13.55
2023-04-10T00:59:56.969Z,13.65
2023-04-10T01:00:28.513Z,13.35
2023-04-10T01:01:00.000Z,13.43
2023-04-10T01:01:31.506Z,13.38
2023-04-10T01:02:03.650Z,13.18
2023-04-10T01:02:35.555Z,13.43
2023-04-10T01:03:12.308Z,14.38
2023-04-10T01:03:44.387Z,12.02
2023-04-10T01:04:16.610Z,13.32
2023-04-10T01:04:48.497Z,13.70
2023-04-10T01:05:20.173Z,14.48
2023-04-10T01:06:16.502Z,14.05
2023-04-10T01:07:04.634Z,11.87
2023-04-10T01:07:54.168Z,11.95
2023-04-10T01:08:44.123Z,11.50
2023-04-10T01:09:24.284Z,12.45
2023-04-10T01:10:15.593Z,12.55
2023-04-10T01:10:58.503Z,11.43
2023-04-10T01:11:53.483Z,12.45
2023-04-10T01:12:52.056Z,11.27
2023-04-10T01:13:34.647Z,11.07
2023-04-10T01:14:27.762Z,10.73
2023-04-10T01:15:10.752Z,9.87
2023-04-10T01:15:58.145Z,10.38
2023-04-10T01:16:46.904Z,10.45
2023-04-10T01:17:24.158Z,10.55
2023-04-10T01:18:09.990Z,10.88
2023-04-10T01:18:48.682Z,11.05
2023-04-10T01:19:31.696Z,10.25
2023-04-10T01:20:12.420Z,10.45
2023-04-10T01:20:43.985Z,11.15
2023-04-10T01:21:17.120Z,11.57
2023-04-10T01:21:49.280Z,10.60
2023-04-10T01:22:26.428Z,11.23
2023-04-10T01:23:13.653Z,10.50
2023-04-10T01:24:14.680Z,10.77
2023-04-10T01:25:09.870Z,11.07
2023-04-10T01:25:48.306Z,9.40
2023-04-10T01:26:42.870Z,10.55
2023-04-10T01:27:40.679Z,9.80
2023-04-10T01:28:39.163Z,9.63
2023-04-10T01:29:15.369Z,9.95
2023-04-10T01:29:51.678Z,10.60
2023-04-10T01:30:24.202Z,10.40
2023-04-10T01:30:59.209Z,11.98
2023-04-10T01:31:42.147Z,9.95
2023-04-10T01:32:18.049Z,10.23
2023-04-10T01:32:56.006Z,9.23
2023-04-10T01:33:35.635Z,10.88
2023-04-10T01:34:16.565Z,10.35
2023-04-10T01:34:51.023Z,10.63
2023-04-10T01:35:24.357Z,11.00
2023-04-10T01:35:59.318Z,10.27
2023-04-10T01:36:36.253Z,9.63
2023-04-10T01:37:17.254Z,10.65
2023-04-10T01:37:51.952Z,10.57
2023-04-10T01:38:26.622Z,11.13
2023-04-10T01:38:58.761Z,10.05
2023-04-10T01:39:31.484Z,10.35
2023-04-10T01:40:06.646Z,11.25
2023-04-10T01:40:42.123Z,10.35
2023-04-10T01:41:14.591Z,9.20
2023-04-10T01:41:46.966Z,9.20
2023-04-10T01:42:20.222Z,9.55
2023-04-10T01:42:55.508Z,10.20
2023-04-10T01:43:29.148Z,9.93
2023-04-10T01:44:04.381Z,9.30
2023-04-10T01:44:41.703Z,10.20
2023-04-10T01:45:18.626Z,10.40
2023-04-10T01:45:51.839Z,10.43
2023-04-10T01:46:25.035Z,10.05
2023-04-10T01:46:57.991Z,9.65
2023-04-10T01:47:30.097Z,9.87
2023-04-10T01:48:01.921Z,9.13
2023-04-10T01:48:33.506Z,9.90
2023-04-10T01:49:05.461Z,9.13
2023-04-10T01:49:44.364Z,9.82
2023-04-10T01:50:16.749Z,10.07
2023-04-10T01:50:49.016Z,10.05
2023-04-10T01:51:21.587Z,10.00
2023-04-10T01:51:58.196Z,10.48
2023-04-10T01:52:31.325Z,9.23
2023-04-10T01:53:06.287Z,9.27
2023-04-10T01:53:39.554Z,9.02
2023-04-10T01:54:11.833Z,9.80
2023-04-10T01:54:45.534Z,10.02
2023-04-10T01:55:17.851Z,9.45
2023-04-10T01:55:50.837Z,9.73
2023-04-10T01:56:22.444Z,9.32
2023-04-10T01:56:54.353Z,9.48
2023-04-10T01:57:26.165Z,9.18
2023-04-10T01:57:59.457Z,9.48
2023-04-10T01:58:31.187Z,8.97
2023-04-10T01:59:04.144Z,9.27
2023-04-10T01:59:38.029Z,9.25
2023-04-10T02:00:10.173Z,9.38
2023-04-10T02:00:43.125Z,9.35
2023-04-10T02:01:29.059Z,8.73
2023-04-10T02:02:01.992Z,8.93
2023-04-10T02:02:34.087Z,8.88
2023-04-10T02:03:05.958Z,9.10
2023-04-10T02:03:38.033Z,9.35
2023-04-10T02:04:10.032Z,8.90
2023-04-10T02:04:41.807Z,9.07
2023-04-10T02:05:16.373Z,9.23
2023-04-10T02:06:05.942Z,9.40
2023-04-10T02:07:04.672Z,9.27
2023-04-10T02:08:00.910Z,9.10
2023-04-10T02:08:39.771Z,8.45
2023-04-10T02:09:21.858Z,8.13
2023-04-10T02:10:05.371Z,8.75
2023-04-10T02:10:51.844Z,9.05
2023-04-10T02:11:32.179Z,8.10
2023-04-10T02:12:09.224Z,8.93
2023-04-10T02:12:54.044Z,8.43
2023-04-10T02:13:27.688Z,8.77
2023-04-10T02:14:05.914Z,8.38
2023-04-10T02:14:41.452Z,8.95
2023-04-10T02:15:13.042Z,8.52
2023-04-10T02:15:47.733Z,9.48
2023-04-10T02:16:22.176Z,8.23
2023-04-10T02:16:56.091Z,8.68
2023-04-10T02:17:29.973Z,9.63
2023-04-10T02:18:05.014Z,9.05
2023-04-10T02:18:38.322Z,9.00
2023-04-10T02:19:11.443Z,8.80
2023-04-10T02:19:45.467Z,9.98
2023-04-10T02:20:18.592Z,8.52
2023-04-10T02:20:50.557Z,8.32
2023-04-10T02:21:22.011Z,8.75
2023-04-10T02:21:54.049Z,8.93
2023-04-10T02:22:26.698Z,9.15
2023-04-10T02:23:03.250Z,8.63
2023-04-10T02:23:36.762Z,8.77
2023-04-10T02:24:08.252Z,9.30
2023-04-10T02:24:39.667Z,8.13
2023-04-10T02:25:11.758Z,9.27
2023-04-10T02:25:43.270Z,8.90
2023-04-10T02:26:14.648Z,8.32
2023-04-10T02:26:53.133Z,8.88
2023-04-10T02:27:32.348Z,9.40
2023-04-10T02:28:05.518Z,8.65
2023-04-10T02:28:40.131Z,9.50
2023-04-10T02:29:11.902Z,8.55
2023-04-10T02:29:43.316Z,8.70
2023-04-10T02:30:14.846Z,8.70
2023-04-10T02:30:46.269Z,8.77
2023-04-10T02:31:17.903Z,9.43
2023-04-10T02:31:50.492Z,8.25
2023-04-10T02:32:22.001Z,7.95
2023-04-10T02:32:53.449Z,9.20
2023-04-10T02:33:24.851Z,8.35
2023-04-10T02:33:56.353Z,8.53
2023-04-10T02:34:28.053Z,8.40
2023-04-10T02:34:59.982Z,9.25
2023-04-10T02:35:31.824Z,9.40
2023-04-10T02:36:03.562Z,8.38
2023-04-10T02:36:36.361Z,9.35
2023-04-10T02:37:07.913Z,8.77
2023-04-10T02:37:40.025Z,9.45
2023-04-10T02:38:11.520Z,9.10
2023-04-10T02:38:43.129Z,9.40
2023-04-10T02:39:14.584Z,8.67
2023-04-10T02:39:46.127Z,8.70
2023-04-10T02:40:18.094Z,9.02
2023-04-10T02:40:50.354Z,9.25
2023-04-10T02:41:22.543Z,9.52
2023-04-10T02:41:54.117Z,8.68
2023-04-10T02:42:25.565Z,8.40
2023-04-10T02:42:57.011Z,8.90
2023-04-10T02:43:29.598Z,8.52
2023-04-10T02:44:01.651Z,8.90
2023-04-10T02:44:33.134Z,9.03
2023-04-10T02:45:05.061Z,9.07
2023-04-10T02:45:36.495Z,8.55
2023-04-10T02:46:08.072Z,9.45
2023-04-10T02:46:39.523Z,9.77
2023-04-10T02:47:11.278Z,8.40
2023-04-10T02:47:42.667Z,8.60
2023-04-10T02:48:14.572Z,8.57
2023-04-10T02:48:46.012Z,9.40
2023-04-10T02:50:07.375Z,8.60
2023-04-10T02:50:39.114Z,9.60
2023-04-10T02:51:10.607Z,8.05
2023-04-10T02:51:42.174Z,8.98
2023-04-10T02:52:13.692Z,8.88
2023-04-10T02:52:45.316Z,8.23
2023-04-10T02:53:16.917Z,8.43
2023-04-10T02:53:48.708Z,9.57
2023-04-10T02:54:20.365Z,8.52
2023-04-10T02:54:51.818Z,8.45
2023-04-10T02:55:23.511Z,8.63
2023-04-10T02:55:55.049Z,8.85
2023-04-10T02:56:27.199Z,9.00
2023-04-10T02:56:58.699Z,8.50
2023-04-10T02:57:30.300Z,8.68
2023-04-10T02:58:01.684Z,9.32
2023-04-10T02:58:33.363Z,9.15
2023-04-10T02:59:04.743Z,9.73
2023-04-10T02:59:36.495Z,9.50
2023-04-10T03:00:08.716Z,9.07
2023-04-10T03:00:40.411Z,8.90
2023-04-10T03:01:12.808Z,8.70
2023-04-10T03:01:46.277Z,8.65
2023-04-10T03:02:17.871Z,8.15
2023-04-10T03:02:49.617Z,8.98
2023-04-10T03:03:21.394Z,8.43
2023-04-10T03:03:53.223Z,9.10
2023-04-10T03:04:25.229Z,8.45
2023-04-10T03:04:56.979Z,9.70
2023-04-10T03:05:29.031Z,8.70
2023-04-10T03:06:00.458Z,8.50
2023-04-10T03:06:32.315Z,9.23
2023-04-10T03:07:03.762Z,8.82
2023-04-10T03:07:35.145Z,9.18
2023-04-10T03:08:06.665Z,9.55
2023-04-10T03:08:38.115Z,8.73
2023-04-10T03:09:09.531Z,8.70
2023-04-10T03:09:40.929Z,9.25
2023-04-10T03:10:12.611Z,8.93
2023-04-10T03:10:45.693Z,7.93
2023-04-10T03:11:17.139Z,8.70
2023-04-10T03:11:48.775Z,8.25
2023-04-10T03:12:20.431Z,8.55
2023-04-10T03:12:51.755Z,9.65
2023-04-10T03:13:26.147Z,9.00
2023-04-10T03:14:00.350Z,8.88
2023-04-10T03:14:31.769Z,9.02
2023-04-10T03:15:03.311Z,7.63
2023-04-10T03:15:34.749Z,8.52
2023-04-10T03:16:06.616Z,8.57
2023-04-10T03:16:38.096Z,8.90
2023-04-10T03:17:09.590Z,8.85
2023-04-10T03:17:40.991Z,8.38
2023-04-10T03:18:12.537Z,8.45
2023-04-10T03:18:44.437Z,9.43
2023-04-10T03:19:16.495Z,8.65
2023-04-10T03:19:47.899Z,9.32
2023-04-10T03:20:19.278Z,10.05
2023-04-10T03:20:50.881Z,13.05
2023-04-10T03:21:22.534Z,12.57
2023-04-10T03:21:53.934Z,16.30
2023-04-10T03:22:25.536Z,14.68
2023-04-10T03:22:57.053Z,15.43
2023-04-10T03:23:28.792Z,12.77
2023-04-10T03:24:00.955Z,10.80
2023-04-10T03:24:32.327Z,11.32
2023-04-10T03:25:03.822Z,9.93
2023-04-10T03:25:35.372Z,9.95
2023-04-10T03:26:07.228Z,9.40
2023-04-10T03:26:38.934Z,9.48
2023-04-10T03:27:10.490Z,8.90
2023-04-10T03:27:42.022Z,8.95
2023-04-10T03:28:13.670Z,9.02
2023-04-10T03:28:45.107Z,9.93
2023-04-10T03:29:18.920Z,10.13
2023-04-10T03:29:50.560Z,8.70
2023-04-10T03:30:21.963Z,8.43
2023-04-10T03:30:53.501Z,9.13
2023-04-10T03:31:24.996Z,8.95
2023-04-10T03:31:57.463Z,9.25
2023-04-10T03:32:31.314Z,9.07
2023-04-10T03:33:03.149Z,8.85
2023-04-10T03:33:34.536Z,9.07
2023-04-10T03:34:06.030Z,8.95
2023-04-10T03:34:37.468Z,8.77
2023-04-10T03:35:10.004Z,8.10
2023-04-10T03:35:42.007Z,8.68
2023-04-10T03:36:13.524Z,8.85
2023-04-10T03:36:45.082Z,9.40
2023-04-10T03:37:16.607Z,9.07
2023-04-10T03:37:48.019Z,8.50
2023-04-10T03:38:19.557Z,8.48
2023-04-10T03:38:53.079Z,9.20
2023-04-10T03:39:24.708Z,9.00
2023-04-10T03:39:56.360Z,8.55
2023-04-10T03:40:27.810Z,9.50
2023-04-10T03:40:59.196Z,8.60
2023-04-10T03:41:31.033Z,9.18
2023-04-10T03:42:02.494Z,9.90
2023-04-10T03:42:33.917Z,8.95
2023-04-10T03:43:05.702Z,8.83
2023-04-10T03:43:37.139Z,9.40
2023-04-10T03:44:08.619Z,8.82
2023-04-10T03:44:40.144Z,9.32
2023-04-10T03:45:12.255Z,9.52
2023-04-10T03:45:43.670Z,8.95
2023-04-10T03:46:15.441Z,9.07
2023-04-10T03:46:46.981Z,8.73
2023-04-10T03:47:18.582Z,8.80
2023-04-10T03:47:50.005Z,8.82
2023-04-10T03:48:21.501Z,8.30
2023-04-10T03:48:53.927Z,9.07
2023-04-10T03:49:25.517Z,8.80
2023-04-10T03:49:57.092Z,9.50
2023-04-10T03:50:28.515Z,9.43
2023-04-10T03:50:59.929Z,9.00
2023-04-10T03:51:31.595Z,9.70
2023-04-10T03:52:03.030Z,9.68
2023-04-10T03:52:34.649Z,9.50
2023-04-10T03:53:06.123Z,8.50
2023-04-10T03:53:37.534Z,8.70
2023-04-10T03:54:09.060Z,9.55
2023-04-10T03:54:40.590Z,9.20
2023-04-10T03:55:12.144Z,8.40
2023-04-10T03:55:43.547Z,9.32
2023-04-10T03:56:15.005Z,10.18
2023-04-10T03:56:46.490Z,8.65
2023-04-10T03:57:19.347Z,9.45
2023-04-10T03:57:50.790Z,8.88
2023-04-10T03:58:22.242Z,8.20
2023-04-10T03:58:53.620Z,9.33
2023-04-10T03:59:37.370Z,9.55
2023-04-10T04:00:10.891Z,8.88
2023-04-10T04:00:42.651Z,8.77
2023-04-10T04:01:14.255Z,8.55
2023-04-10T04:01:45.929Z,9.48
2023-04-10T04:02:17.860Z,9.25
2023-04-10T04:02:52.576Z,10.18
2023-04-10T04:03:24.562Z,9.52
2023-04-10T04:03:56.482Z,9.82
2023-04-10T04:04:28.176Z,9.07
2023-04-10T04:04:59.882Z,8.80
2023-04-10T04:05:32.362Z,8.63
2023-04-10T04:06:04.096Z,9.43
2023-04-10T04:06:35.467Z,9.23
2023-04-10T04:07:06.867Z,8.15
2023-04-10T04:07:38.331Z,9.23
2023-04-10T04:08:09.700Z,9.23
2023-04-10T04:08:41.072Z,10.20
2023-04-10T04:09:12.415Z,10.13
2023-04-10T04:09:43.880Z,8.83
2023-04-10T04:10:15.348Z,9.63
2023-04-10T04:10:46.886Z,9.43
2023-04-10T04:11:18.278Z,10.73
2023-04-10T04:11:49.695Z,9.55
2023-04-10T04:12:21.061Z,9.50
2023-04-10T04:12:52.657Z,9.57
2023-04-10T04:13:24.177Z,9.52
2023-04-10T04:13:55.830Z,9.23
2023-04-10T04:14:27.606Z,9.35
2023-04-10T04:14:59.109Z,9.63
2023-04-10T04:15:30.618Z,8.50
2023-04-10T04:16:02.081Z,9.60
2023-04-10T04:16:33.612Z,9.00
2023-04-10T04:17:05.398Z,9.25
2023-04-10T04:17:37.277Z,9.85
2023-04-10T04:18:09.501Z,9.15
2023-04-10T04:18:40.860Z,8.73
2023-04-10T04:19:12.284Z,10.02
2023-04-10T04:19:43.884Z,9.73
2023-04-10T04:20:15.717Z,9.83
2023-04-10T04:20:47.147Z,9.38
2023-04-10T04:21:18.585Z,9.55
2023-04-10T04:21:50.205Z,9.60
2023-04-10T04:22:21.663Z,9.95
2023-04-10T04:22:53.146Z,9.43
2023-04-10T04:23:24.537Z,8.80
2023-04-10T04:23:55.969Z,9.93
2023-04-10T04:24:27.513Z,8.93
2023-04-10T04:24:59.079Z,9.35
2023-04-10T04:25:30.768Z,11.03
2023-04-10T04:26:02.234Z,9.05
2023-04-10T04:26:33.838Z,9.85
2023-04-10T04:27:05.331Z,9.60
2023-04-10T04:27:37.540Z,10.00
2023-04-10T04:28:09.908Z,9.77
2023-04-10T04:28:41.312Z,10.27
2023-04-10T04:29:12.676Z,10.77
2023-04-10T04:29:44.067Z,10.38
2023-04-10T04:30:15.448Z,9.13
2023-04-10T04:30:46.806Z,10.10
2023-04-10T04:31:18.407Z,8.75
2023-04-10T04:31:50.492Z,8.93
2023-04-10T04:32:22.062Z,9.25
2023-04-10T04:32:53.517Z,8.98
2023-04-10T04:33:24.905Z,9.85
2023-04-10T04:33:56.473Z,9.75
2023-04-10T04:34:27.991Z,9.00
2023-04-10T04:34:59.366Z,11.13
2023-04-10T04:35:31.088Z,9.10
2023-04-10T04:36:02.595Z,9.47
2023-04-10T04:36:34.076Z,9.68
2023-04-10T04:37:05.571Z,9.90
2023-04-10T04:37:36.951Z,10.07
2023-04-10T04:38:08.368Z,10.38
2023-04-10T04:38:39.888Z,9.38
2023-04-10T04:39:11.277Z,9.77
2023-04-10T04:39:42.626Z,9.90
2023-04-10T04:40:14.077Z,9.63
2023-04-10T04:40:46.169Z,9.60
2023-04-10T04:41:18.786Z,9.77
2023-04-10T04:41:51.831Z,9.60
2023-04-10T04:42:23.265Z,9.10
2023-04-10T04:42:54.854Z,10.82
2023-04-10T04:43:26.322Z,9.25
2023-04-10T04:44:02.157Z,9.68
2023-04-10T04:44:33.569Z,9.93
2023-04-10T04:45:05.630Z,10.65
2023-04-10T04:45:37.089Z,10.55
2023-04-10T04:46:08.664Z,9.25
2023-04-10T04:46:41.467Z,9.53
2023-04-10T04:47:14.608Z,10.02
2023-04-10T04:47:46.020Z,9.75
2023-04-10T04:48:17.915Z,11.57
2023-04-10T04:48:49.320Z,10.43
2023-04-10T04:49:20.755Z,9.25
2023-04-10T04:49:52.353Z,9.52
2023-04-10T04:50:23.732Z,10.18
2023-04-10T04:50:55.121Z,10.38
2023-04-10T04:51:27.039Z,10.15
2023-04-10T04:51:58.436Z,9.87
2023-04-10T04:52:29.805Z,9.95
2023-04-10T04:53:01.184Z,10.70
2023-04-10T04:53:32.770Z,11.43
2023-04-10T04:54:04.498Z,9.18
2023-04-10T04:54:35.945Z,9.15
2023-04-10T04:55:08.512Z,8.70
2023-04-10T04:55:39.930Z,9.82
2023-04-10T04:56:11.447Z,12.00
2023-04-10T04:56:43.036Z,9.75
2023-04-10T04:57:14.386Z,9.33
2023-04-10T04:57:45.778Z,8.90
2023-04-10T04:58:17.293Z,9.52
2023-04-10T04:58:48.883Z,10.15
2023-04-10T04:59:20.398Z,11.00
2023-04-10T04:59:51.951Z,10.07
2023-04-10T05:00:23.461Z,9.73
2023-04-10T05:00:55.123Z,10.75
2023-04-10T05:01:26.673Z,10.35
2023-04-10T05:01:58.512Z,10.10
2023-04-10T05:02:30.184Z,10.70
2023-04-10T05:03:01.812Z,9.65
2023-04-10T05:03:33.568Z,9.75
2023-04-10T05:04:05.427Z,10.75
2023-04-10T05:04:37.126Z,9.90
2023-04-10T05:05:09.035Z,10.13
2023-04-10T05:05:40.664Z,9.23
2023-04-10T05:06:12.408Z,9.50
2023-04-10T05:06:43.744Z,9.35
2023-04-10T05:07:15.877Z,9.23
2023-04-10T05:07:47.329Z,9.10
2023-04-10T05:08:18.741Z,10.10
2023-04-10T05:08:51.238Z,10.88
2023-04-10T05:09:22.630Z,9.27
2023-04-10T05:09:53.985Z,10.02
2023-04-10T05:10:25.826Z,9.95
2023-04-10T05:10:57.232Z,10.82
2023-04-10T05:11:28.729Z,10.98
2023-04-10T05:12:00.254Z,10.23
2023-04-10T05:12:31.768Z,9.63
2023-04-10T05:13:03.188Z,9.67
2023-04-10T05:13:34.819Z,10.20
2023-04-10T05:14:06.270Z,9.98
2023-04-10T05:14:37.705Z,10.55
2023-04-10T05:15:09.875Z,9.95
2023-04-10T05:15:41.472Z,9.38
2023-04-10T05:16:12.879Z,10.18
2023-04-10T05:16:44.370Z,9.95
2023-04-10T05:17:16.976Z,9.52
2023-04-10T05:17:51.081Z,9.80
2023-04-10T05:18:23.735Z,9.17
2023-04-10T05:18:55.981Z,9.40
2023-04-10T05:19:27.525Z,9.95
2023-04-10T05:19:58.948Z,10.10
2023-04-10T05:20:30.352Z,10.50
2023-04-10T05:21:01.818Z,9.52
2023-04-10T05:21:33.318Z,10.23
2023-04-10T05:22:04.739Z,10.52
2023-04-10T05:22:36.437Z,10.35
2023-04-10T05:23:07.789Z,9.82
2023-04-10T05:23:39.228Z,10.47
2023-04-10T05:24:10.604Z,9.52
2023-04-10T05:24:42.198Z,10.05
2023-04-10T05:25:13.777Z,10.90
2023-04-10T05:25:45.351Z,10.93
2023-04-10T05:26:17.070Z,10.18
2023-04-10T05:26:48.426Z,9.85
2023-04-10T05:27:20.202Z,10.27
2023-04-10T05:27:51.669Z,10.80
2023-04-10T05:28:23.274Z,10.52
2023-04-10T05:28:55.029Z,10.17
2023-04-10T05:29:26.746Z,9.85
2023-04-10T05:29:58.106Z,9.57
2023-04-10T05:30:29.797Z,9.82
2023-04-10T05:31:01.224Z,10.32
2023-04-10T05:31:32.855Z,10.77
2023-04-10T05:32:04.407Z,9.82
2023-04-10T05:32:35.860Z,9.23
2023-04-10T05:33:07.530Z,9.93
2023-04-10T05:33:39.078Z,9.75
2023-04-10T05:34:10.685Z,10.80
2023-04-10T05:34:42.147Z,9.25
2023-04-10T05:35:13.595Z,9.85
2023-04-10T05:35:46.528Z,11.95
2023-04-10T05:36:18.347Z,9.73
2023-04-10T05:36:49.783Z,10.15
2023-04-10T05:37:21.173Z,10.00
2023-04-10T05:37:52.836Z,10.70
2023-04-10T05:38:24.820Z,10.93
2023-04-10T05:38:56.487Z,10.10
2023-04-10T05:39:28.046Z,10.47
2023-04-10T05:39:59.894Z,10.32
2023-04-10T05:40:31.421Z,10.48
2023-04-10T05:41:03.148Z,10.73
2023-04-10T05:41:34.840Z,10.05
2023-04-10T05:42:06.241Z,9.93
2023-04-10T05:42:37.816Z,10.23
2023-04-10T05:43:09.578Z,10.23
2023-04-10T05:43:41.005Z,10.02
2023-04-10T05:44:12.591Z,9.30
2023-04-10T05:44:45.410Z,10.33
2023-04-10T05:45:16.923Z,10.98
2023-04-10T05:45:48.524Z,9.73
2023-04-10T05:46:20.002Z,9.88
2023-04-10T05:46:51.582Z,9.20
2023-04-10T05:47:23.248Z,10.38
2023-04-10T05:47:54.861Z,9.45
2023-04-10T05:48:26.335Z,9.93
2023-04-10T05:48:58.393Z,9.73
2023-04-10T05:49:30.035Z,9.95
2023-04-10T05:50:01.500Z,9.80
2023-04-10T05:50:35.292Z,10.27
2023-04-10T05:51:07.128Z,10.52
2023-04-10T05:51:38.882Z,10.23
2023-04-10T05:52:10.355Z,10.38
2023-04-10T05:52:41.746Z,9.52
2023-04-10T05:53:14.529Z,9.98
2023-04-10T05:53:45.903Z,9.48
2023-04-10T05:54:17.376Z,9.95
2023-04-10T05:54:48.815Z,9.90
2023-04-10T05:55:20.298Z,9.17
2023-04-10T05:55:51.741Z,9.93
2023-04-10T05:56:23.191Z,9.60
2023-04-10T05:56:54.625Z,10.30
2023-04-10T05:57:26.146Z,10.32
2023-04-10T05:57:57.744Z,10.15
2023-04-10T05:58:29.544Z,10.48
2023-04-10T05:59:00.885Z,9.88
2023-04-10T05:59:32.293Z,9.88
2023-04-10T06:00:04.355Z,10.13
2023-04-10T06:00:37.280Z,9.57
2023-04-10T06:01:08.779Z,10.90
2023-04-10T06:01:42.317Z,9.13
2023-04-10T06:02:13.891Z,9.27
2023-04-10T06:02:45.751Z,10.25
2023-04-10T06:03:17.331Z,10.15
2023-04-10T06:03:48.990Z,9.77
2023-04-10T06:04:21.710Z,10.15
2023-04-10T06:04:53.591Z,10.02
2023-04-10T06:05:25.386Z,9.40
2023-04-10T06:05:58.156Z,9.47
2023-04-10T06:06:29.785Z,9.60
2023-04-10T06:07:01.391Z,9.50
2023-04-10T06:07:33.206Z,9.98
2023-04-10T06:08:04.920Z,10.15
2023-04-10T06:08:36.350Z,8.95
2023-04-10T06:09:07.756Z,9.77
2023-04-10T06:09:39.156Z,10.80
2023-04-10T06:10:10.891Z,8.68
2023-04-10T06:10:42.695Z,10.15
2023-04-10T06:11:14.362Z,9.57
2023-04-10T06:11:45.984Z,10.30
2023-04-10T06:12:18.181Z,9.32
2023-04-10T06:12:49.674Z,10.27
2023-04-10T06:13:21.563Z,10.73
2023-04-10T06:13:52.982Z,9.55
2023-04-10T06:14:24.436Z,9.45
2023-04-10T06:14:55.890Z,8.73
2023-04-10T06:15:27.635Z,9.90
2023-04-10T06:15:59.125Z,9.80
2023-04-10T06:16:30.881Z,9.53
2023-04-10T06:17:02.435Z,9.27
2023-04-10T06:17:33.836Z,9.30
2023-04-10T06:18:05.405Z,9.45
2023-04-10T06:18:38.254Z,9.15
2023-04-10T06:19:09.759Z,9.90
2023-04-10T06:19:41.117Z,9.95
2023-04-10T06:20:12.827Z,10.60
2023-04-10T06:20:44.265Z,9.95
2023-04-10T06:21:15.646Z,9.70
2023-04-10T06:21:47.167Z,9.57
2023-04-10T06:22:18.589Z,9.88
2023-04-10T06:22:50.155Z,9.63
2023-04-10T06:23:21.696Z,9.65
2023-04-10T06:23:53.596Z,10.20
2023-04-10T06:24:25.353Z,10.27
2023-04-10T06:24:57.000Z,10.00
2023-04-10T06:25:28.559Z,9.88
2023-04-10T06:26:01.028Z,9.57
2023-04-10T06:26:32.472Z,9.77
2023-04-10T06:27:03.998Z,9.53
2023-04-10T06:27:36.059Z,9.50
2023-04-10T06:28:07.492Z,9.82
2023-04-10T06:28:38.926Z,8.73
2023-04-10T06:29:10.902Z,10.20
2023-04-10T06:29:42.328Z,9.52
2023-04-10T06:30:13.784Z,9.75
2023-04-10T06:30:45.229Z,10.95
2023-04-10T06:31:23.700Z,10.07
2023-04-10T06:31:55.620Z,9.05
2023-04-10T06:32:27.226Z,9.87
2023-04-10T06:32:58.995Z,9.73
2023-04-10T06:33:30.712Z,9.48
2023-04-10T06:34:02.308Z,9.48
2023-04-10T06:34:33.744Z,10.05
2023-04-10T06:35:05.897Z,9.40
2023-04-10T06:35:37.771Z,10.52
2023-04-10T06:36:09.312Z,9.77
2023-04-10T06:36:40.974Z,10.93
2023-04-10T06:37:12.333Z,10.05
2023-04-10T06:37:44.161Z,9.67
2023-04-10T06:38:16.006Z,9.40
2023-04-10T06:38:47.491Z,9.50
2023-04-10T06:39:19.496Z,9.50
2023-04-10T06:39:51.257Z,9.30
2023-04-10T06:40:22.866Z,10.80
2023-04-10T06:40:54.307Z,10.13
2023-04-10T06:41:25.708Z,10.13
2023-04-10T06:41:57.742Z,10.02
2023-04-10T06:42:29.122Z,10.93
2023-04-10T06:43:01.325Z,10.20
2023-04-10T06:43:36.793Z,9.52
2023-04-10T06:44:08.246Z,10.25
2023-04-10T06:44:39.655Z,9.93
2023-04-10T06:45:11.296Z,10.25
2023-04-10T06:45:42.748Z,9.30
2023-04-10T06:46:14.398Z,10.10
2023-04-10T06:46:46.313Z,10.20
2023-04-10T06:47:18.233Z,9.90
2023-04-10T06:47:49.709Z,9.65
2023-04-10T06:48:21.186Z,9.50
2023-04-10T06:48:52.816Z,9.95
2023-04-10T06:49:24.544Z,10.38
2023-04-10T06:49:55.952Z,9.27
2023-04-10T06:50:27.658Z,9.32
2023-04-10T06:51:00.855Z,9.52
2023-04-10T06:51:32.331Z,9.32
2023-04-10T06:52:03.898Z,9.75
2023-04-10T06:52:35.470Z,10.20
2023-04-10T06:53:06.999Z,9.60
2023-04-10T06:53:38.537Z,10.07
2023-04-10T06:54:09.920Z,9.38
2023-04-10T06:54:41.529Z,9.52
2023-04-10T06:55:13.289Z,10.38
2023-04-10T06:55:44.708Z,9.38
2023-04-10T06:56:16.473Z,9.85
2023-04-10T06:56:47.858Z,9.90
2023-04-10T06:57:19.325Z,10.00
2023-04-10T06:57:51.018Z,9.75
2023-04-10T06:58:22.642Z,9.63
2023-04-10T06:58:54.295Z,9.30
2023-04-10T06:59:25.923Z,9.20
2023-04-10T06:59:57.423Z,8.50
2023-04-10T07:00:28.899Z,9.50
2023-04-10T07:01:04.836Z,9.20
2023-04-10T07:01:36.582Z,8.70
2023-04-10T07:02:08.295Z,8.93
2023-04-10T07:02:39.695Z,9.70
2023-04-10T07:03:11.241Z,10.18
2023-04-10T07:03:42.709Z,9.25
2023-04-10T07:04:14.086Z,8.93
2023-04-10T07:04:45.592Z,8.48
2023-04-10T07:05:17.648Z,9.07
2023-04-10T07:05:49.330Z,9.20
2023-04-10T07:06:20.760Z,9.38
2023-04-10T07:06:52.259Z,9.38
2023-04-10T07:07:23.997Z,8.75
2023-04-10T07:07:55.789Z,9.98
2023-04-10T07:08:27.187Z,9.85
2023-04-10T07:08:58.808Z,9.80
2023-04-10T07:09:30.864Z,9.53
2023-04-10T07:10:02.237Z,9.45
2023-04-10T07:10:33.652Z,9.70
2023-04-10T07:11:05.234Z,9.93
2023-04-10T07:11:36.869Z,10.65
2023-04-10T07:12:08.418Z,9.40